sensor_id;sensor_type;location;lat;lon;timestamp;pressure;altitude;pressure_sealevel;temperature;humidity
11041;BME280;5573;49.592;8.662;2023-02-03T00:01:06;101066.91;;;7.62;100.00
11041;BME280;5573;49.592;8.662;2023-02-03T00:03:34;101069.34;;;7.54;100.00
11041;BME280;5573;49.592;8.662;2023-02-03T00:06:02;101072.91;;;7.55;100.00
11041;BME280;5573;49.592;8.662;2023-02-03T00:08:30;101079.78;;;7.61;100.00
11041;BME280;5573;49.592;8.662;2023-02-03T00:10:58;101076.22;;;7.61;100.00
11041;BME280;5573;49.592;8.662;2023-02-03T00:13:28;101064.97;;;7.62;100.00
11041;BME280;5573;49.592;8.662;2023-02-03T00:15:55;101065.44;;;7.64;100.00
11041;BME280;5573;49.592;8.662;2023-02-03T00:18:23;101066.22;;;7.65;100.00
11041;BME280;5573;49.592;8.662;2023-02-03T00:20:51;101069.13;;;7.68;100.00
11041;BME280;5573;49.592;8.662;2023-02-03T00:23:19;101062.38;;;7.66;100.00
11041;BME280;5573;49.592;8.662;2023-02-03T00:25:46;101061.75;;;7.60;100.00
11041;BME280;5573;49.592;8.662;2023-02-03T00:28:14;101069.63;;;7.62;100.00
11041;BME280;5573;49.592;8.662;2023-02-03T00:30:43;101071.75;;;7.56;100.00
11041;BME280;5573;49.592;8.662;2023-02-03T00:33:11;101071.22;;;7.63;100.00
11041;BME280;5573;49.592;8.662;2023-02-03T00:35:39;101055.28;;;7.65;100.00
11041;BME280;5573;49.592;8.662;2023-02-03T00:38:07;101039.94;;;7.72;100.00
11041;BME280;5573;49.592;8.662;2023-02-03T00:40:35;101037.13;;;7.81;100.00
11041;BME280;5573;49.592;8.662;2023-02-03T00:43:03;101048.41;;;7.80;100.00
11041;BME280;5573;49.592;8.662;2023-02-03T00:45:30;101034.38;;;7.81;100.00
11041;BME280;5573;49.592;8.662;2023-02-03T00:47:59;101043.13;;;7.74;100.00
11041;BME280;5573;49.592;8.662;2023-02-03T00:50:27;101039.84;;;7.60;100.00
11041;BME280;5573;49.592;8.662;2023-02-03T00:52:56;101031.34;;;7.53;100.00
11041;BME280;5573;49.592;8.662;2023-02-03T00:55:24;101033.00;;;7.45;100.00
11041;BME280;5573;49.592;8.662;2023-02-03T00:57:52;101043.38;;;7.61;100.00
11041;BME280;5573;49.592;8.662;2023-02-03T01:00:20;101040.63;;;7.61;100.00
11041;BME280;5573;49.592;8.662;2023-02-03T01:02:48;101054.31;;;7.61;100.00
11041;BME280;5573;49.592;8.662;2023-02-03T01:05:17;101058.78;;;7.74;100.00
11041;BME280;5573;49.592;8.662;2023-02-03T01:07:44;101063.72;;;7.81;100.00
11041;BME280;5573;49.592;8.662;2023-02-03T01:10:12;101062.84;;;7.68;100.00
11041;BME280;5573;49.592;8.662;2023-02-03T01:12:41;101060.63;;;7.61;100.00
11041;BME280;5573;49.592;8.662;2023-02-03T01:15:09;101053.72;;;7.55;100.00
11041;BME280;5573;49.592;8.662;2023-02-03T01:17:37;101054.16;;;7.66;100.00
11041;BME280;5573;49.592;8.662;2023-02-03T01:20:05;101038.69;;;7.40;100.00
11041;BME280;5573;49.592;8.662;2023-02-03T01:22:35;101041.47;;;7.61;100.00
11041;BME280;5573;49.592;8.662;2023-02-03T01:25:03;101026.31;;;7.34;100.00
11041;BME280;5573;49.592;8.662;2023-02-03T01:27:30;101018.19;;;7.46;100.00
11041;BME280;5573;49.592;8.662;2023-02-03T01:29:58;101005.84;;;7.61;100.00
11041;BME280;5573;49.592;8.662;2023-02-03T01:32:26;100969.41;;;7.40;100.00
11041;BME280;5573;49.592;8.662;2023-02-03T01:34:55;100977.44;;;7.45;100.00
11041;BME280;5573;49.592;8.662;2023-02-03T01:37:23;100964.19;;;7.26;100.00
11041;BME280;5573;49.592;8.662;2023-02-03T01:39:54;100988.34;;;7.53;100.00
11041;BME280;5573;49.592;8.662;2023-02-03T01:42:23;100997.03;;;7.56;100.00
11041;BME280;5573;49.592;8.662;2023-02-03T01:44:51;101002.19;;;7.57;100.00
11041;BME280;5573;49.592;8.662;2023-02-03T01:47:28;100993.28;;;7.60;100.00
11041;BME280;5573;49.592;8.662;2023-02-03T01:50:03;100978.09;;;7.42;100.00
11041;BME280;5573;49.592;8.662;2023-02-03T01:52:33;100970.72;;;7.42;100.00
11041;BME280;5573;49.592;8.662;2023-02-03T01:55:05;100979.44;;;7.57;100.00
11041;BME280;5573;49.592;8.662;2023-02-03T01:57:37;100981.25;;;7.52;100.00
11041;BME280;5573;49.592;8.662;2023-02-03T02:00:07;100971.22;;;7.57;100.00
11041;BME280;5573;49.592;8.662;2023-02-03T02:02:43;100965.63;;;7.53;100.00
11041;BME280;5573;49.592;8.662;2023-02-03T02:05:16;100967.63;;;7.65;100.00
11041;BME280;5573;49.592;8.662;2023-02-03T02:07:47;100971.44;;;7.51;100.00
11041;BME280;5573;49.592;8.662;2023-02-03T02:10:17;100975.53;;;7.66;100.00
11041;BME280;5573;49.592;8.662;2023-02-03T02:12:46;100974.81;;;7.78;100.00
11041;BME280;5573;49.592;8.662;2023-02-03T02:15:14;100968.56;;;7.69;100.00
11041;BME280;5573;49.592;8.662;2023-02-03T02:18:01;100967.31;;;7.66;100.00
11041;BME280;5573;49.592;8.662;2023-02-03T02:21:10;100966.63;;;7.69;100.00
11041;BME280;5573;49.592;8.662;2023-02-03T02:24:25;100967.91;;;7.72;100.00
11041;BME280;5573;49.592;8.662;2023-02-03T02:27:05;100952.16;;;7.69;100.00
11041;BME280;5573;49.592;8.662;2023-02-03T02:29:50;100964.03;;;7.73;100.00
11041;BME280;5573;49.592;8.662;2023-02-03T02:32:42;100978.81;;;7.60;100.00
11041;BME280;5573;49.592;8.662;2023-02-03T02:35:18;100961.91;;;7.58;100.00
11041;BME280;5573;49.592;8.662;2023-02-03T02:37:52;100964.44;;;7.63;100.00
11041;BME280;5573;49.592;8.662;2023-02-03T02:40:32;100958.06;;;7.50;100.00
11041;BME280;5573;49.592;8.662;2023-02-03T02:43:08;100955.34;;;7.50;100.00
11041;BME280;5573;49.592;8.662;2023-02-03T02:45:44;100956.97;;;7.51;100.00
11041;BME280;5573;49.592;8.662;2023-02-03T02:48:20;100966.34;;;7.41;100.00
11041;BME280;5573;49.592;8.662;2023-02-03T02:50:51;100962.25;;;7.26;100.00
11041;BME280;5573;49.592;8.662;2023-02-03T02:53:24;100972.34;;;7.35;100.00
11041;BME280;5573;49.592;8.662;2023-02-03T02:55:54;100976.22;;;7.33;100.00
11041;BME280;5573;49.592;8.662;2023-02-03T02:58:25;100945.69;;;7.23;100.00
11041;BME280;5573;49.592;8.662;2023-02-03T03:00:54;100982.94;;;7.45;100.00
11041;BME280;5573;49.592;8.662;2023-02-03T03:03:23;100945.50;;;6.98;100.00
11041;BME280;5573;49.592;8.662;2023-02-03T03:05:54;100986.09;;;7.26;100.00
11041;BME280;5573;49.592;8.662;2023-02-03T03:08:31;100991.19;;;7.36;100.00
11041;BME280;5573;49.592;8.662;2023-02-03T03:11:00;100990.09;;;7.28;100.00
11041;BME280;5573;49.592;8.662;2023-02-03T03:13:31;101002.78;;;7.33;100.00
11041;BME280;5573;49.592;8.662;2023-02-03T03:16:00;101003.78;;;7.28;100.00
11041;BME280;5573;49.592;8.662;2023-02-03T03:18:37;101008.72;;;7.35;100.00
11041;BME280;5573;49.592;8.662;2023-02-03T03:21:10;101018.09;;;7.34;100.00
11041;BME280;5573;49.592;8.662;2023-02-03T03:23:44;101029.03;;;7.34;100.00
11041;BME280;5573;49.592;8.662;2023-02-03T03:26:18;101028.69;;;7.36;100.00
11041;BME280;5573;49.592;8.662;2023-02-03T03:28:51;101031.44;;;7.36;100.00
11041;BME280;5573;49.592;8.662;2023-02-03T03:31:21;101024.50;;;7.38;100.00
11041;BME280;5573;49.592;8.662;2023-02-03T03:33:50;101026.78;;;7.36;100.00
11041;BME280;5573;49.592;8.662;2023-02-03T03:36:23;101021.84;;;7.21;100.00
11041;BME280;5573;49.592;8.662;2023-02-03T03:38:55;101032.31;;;7.19;100.00
11041;BME280;5573;49.592;8.662;2023-02-03T03:41:35;101018.50;;;7.15;100.00
11041;BME280;5573;49.592;8.662;2023-02-03T03:44:09;101020.31;;;7.02;100.00
11041;BME280;5573;49.592;8.662;2023-02-03T03:46:40;101016.97;;;6.97;100.00
11041;BME280;5573;49.592;8.662;2023-02-03T03:49:12;101008.50;;;6.72;100.00
11041;BME280;5573;49.592;8.662;2023-02-03T03:51:44;100992.59;;;6.65;100.00
11041;BME280;5573;49.592;8.662;2023-02-03T03:54:16;101013.03;;;6.59;100.00
11041;BME280;5573;49.592;8.662;2023-02-03T03:56:49;101009.97;;;6.69;100.00
11041;BME280;5573;49.592;8.662;2023-02-03T03:59:20;100993.88;;;6.68;100.00
11041;BME280;5573;49.592;8.662;2023-02-03T04:01:50;100994.84;;;6.63;100.00
11041;BME280;5573;49.592;8.662;2023-02-03T04:04:20;100988.75;;;6.66;100.00
11041;BME280;5573;49.592;8.662;2023-02-03T04:06:51;100977.47;;;6.68;100.00
11041;BME280;5573;49.592;8.662;2023-02-03T04:09:19;100980.56;;;6.66;100.00
11041;BME280;5573;49.592;8.662;2023-02-03T04:11:47;100973.31;;;6.70;100.00
11041;BME280;5573;49.592;8.662;2023-02-03T04:14:33;100990.94;;;6.82;100.00
11041;BME280;5573;49.592;8.662;2023-02-03T04:17:01;100989.50;;;6.84;100.00
11041;BME280;5573;49.592;8.662;2023-02-03T04:19:30;100986.28;;;6.82;100.00
11041;BME280;5573;49.592;8.662;2023-02-03T04:21:58;100983.53;;;6.82;100.00
11041;BME280;5573;49.592;8.662;2023-02-03T04:24:26;100974.41;;;6.69;100.00
11041;BME280;5573;49.592;8.662;2023-02-03T04:26:53;100960.94;;;6.64;100.00
11041;BME280;5573;49.592;8.662;2023-02-03T04:29:21;100965.25;;;6.65;100.00
11041;BME280;5573;49.592;8.662;2023-02-03T04:31:49;100972.44;;;6.79;100.00
11041;BME280;5573;49.592;8.662;2023-02-03T04:34:17;100964.41;;;6.82;100.00
11041;BME280;5573;49.592;8.662;2023-02-03T04:36:46;100977.91;;;6.87;100.00
11041;BME280;5573;49.592;8.662;2023-02-03T04:39:13;100993.13;;;6.97;100.00
11041;BME280;5573;49.592;8.662;2023-02-03T04:41:41;100993.44;;;7.04;100.00
11041;BME280;5573;49.592;8.662;2023-02-03T04:44:08;100997.16;;;7.00;100.00
11041;BME280;5573;49.592;8.662;2023-02-03T04:46:36;100983.66;;;6.95;100.00
11041;BME280;5573;49.592;8.662;2023-02-03T04:49:04;100990.09;;;6.99;100.00
11041;BME280;5573;49.592;8.662;2023-02-03T04:51:32;100993.94;;;6.98;100.00
11041;BME280;5573;49.592;8.662;2023-02-03T04:54:01;100991.66;;;7.00;100.00
11041;BME280;5573;49.592;8.662;2023-02-03T04:56:29;100990.88;;;6.99;100.00
11041;BME280;5573;49.592;8.662;2023-02-03T04:58:56;100984.59;;;6.99;100.00
11041;BME280;5573;49.592;8.662;2023-02-03T05:01:24;100994.41;;;7.08;100.00
11041;BME280;5573;49.592;8.662;2023-02-03T05:03:52;100993.44;;;7.04;100.00
11041;BME280;5573;49.592;8.662;2023-02-03T05:06:22;100993.72;;;7.11;100.00
11041;BME280;5573;49.592;8.662;2023-02-03T05:08:50;100990.78;;;7.17;100.00
11041;BME280;5573;49.592;8.662;2023-02-03T05:11:19;100998.69;;;7.18;100.00
11041;BME280;5573;49.592;8.662;2023-02-03T05:13:47;100987.56;;;7.15;100.00
11041;BME280;5573;49.592;8.662;2023-02-03T05:16:15;101000.81;;;7.04;100.00
11041;BME280;5573;49.592;8.662;2023-02-03T05:18:43;101003.41;;;7.09;100.00
11041;BME280;5573;49.592;8.662;2023-02-03T05:21:10;100992.94;;;7.11;100.00
11041;BME280;5573;49.592;8.662;2023-02-03T05:23:38;100985.25;;;7.04;100.00
11041;BME280;5573;49.592;8.662;2023-02-03T05:26:06;100986.31;;;7.12;100.00
11041;BME280;5573;49.592;8.662;2023-02-03T05:28:35;100988.22;;;7.20;100.00
11041;BME280;5573;49.592;8.662;2023-02-03T05:31:03;100988.63;;;7.31;100.00
11041;BME280;5573;49.592;8.662;2023-02-03T05:33:31;100997.31;;;7.33;100.00
11041;BME280;5573;49.592;8.662;2023-02-03T05:35:59;100981.06;;;7.58;100.00
11041;BME280;5573;49.592;8.662;2023-02-03T05:38:26;100987.97;;;7.64;100.00
11041;BME280;5573;49.592;8.662;2023-02-03T05:40:54;100978.59;;;7.65;100.00
11041;BME280;5573;49.592;8.662;2023-02-03T05:43:41;100980.06;;;7.62;100.00
11041;BME280;5573;49.592;8.662;2023-02-03T05:46:09;100964.91;;;7.65;100.00
11041;BME280;5573;49.592;8.662;2023-02-03T05:48:36;100971.00;;;7.70;100.00
11041;BME280;5573;49.592;8.662;2023-02-03T05:51:04;100964.25;;;7.68;100.00
11041;BME280;5573;49.592;8.662;2023-02-03T05:53:32;100962.22;;;7.77;100.00
11041;BME280;5573;49.592;8.662;2023-02-03T05:56:00;100969.78;;;7.80;100.00
11041;BME280;5573;49.592;8.662;2023-02-03T05:58:27;100958.56;;;7.73;100.00
11041;BME280;5573;49.592;8.662;2023-02-03T06:00:56;100966.84;;;7.85;100.00
11041;BME280;5573;49.592;8.662;2023-02-03T06:03:24;100961.91;;;7.79;100.00
11041;BME280;5573;49.592;8.662;2023-02-03T06:05:52;100956.75;;;7.77;100.00
11041;BME280;5573;49.592;8.662;2023-02-03T06:08:19;100934.91;;;7.89;100.00
11041;BME280;5573;49.592;8.662;2023-02-03T06:10:47;100944.53;;;7.74;100.00
11041;BME280;5573;49.592;8.662;2023-02-03T06:13:15;100943.38;;;7.76;100.00
11041;BME280;5573;49.592;8.662;2023-02-03T06:15:42;100945.78;;;7.77;100.00
11041;BME280;5573;49.592;8.662;2023-02-03T06:18:12;100950.56;;;7.68;100.00
11041;BME280;5573;49.592;8.662;2023-02-03T06:20:39;100940.84;;;7.70;100.00
11041;BME280;5573;49.592;8.662;2023-02-03T06:23:07;100938.38;;;7.78;100.00
11041;BME280;5573;49.592;8.662;2023-02-03T06:25:35;100935.53;;;7.74;100.00
11041;BME280;5573;49.592;8.662;2023-02-03T06:28:03;100927.88;;;7.80;100.00
11041;BME280;5573;49.592;8.662;2023-02-03T06:30:30;100927.63;;;7.72;100.00
11041;BME280;5573;49.592;8.662;2023-02-03T06:32:58;100928.19;;;7.66;100.00
11041;BME280;5573;49.592;8.662;2023-02-03T06:35:27;100924.75;;;7.69;100.00
11041;BME280;5573;49.592;8.662;2023-02-03T06:37:55;100915.41;;;7.70;100.00
11041;BME280;5573;49.592;8.662;2023-02-03T06:40:23;100913.34;;;7.67;100.00
11041;BME280;5573;49.592;8.662;2023-02-03T06:42:51;100916.81;;;7.76;100.00
11041;BME280;5573;49.592;8.662;2023-02-03T06:45:18;100932.09;;;7.77;100.00
11041;BME280;5573;49.592;8.662;2023-02-03T06:47:46;100935.13;;;7.84;100.00
11041;BME280;5573;49.592;8.662;2023-02-03T06:50:14;100926.91;;;7.84;100.00
11041;BME280;5573;49.592;8.662;2023-02-03T06:52:44;100935.59;;;7.86;100.00
11041;BME280;5573;49.592;8.662;2023-02-03T06:55:11;100928.69;;;8.01;100.00
11041;BME280;5573;49.592;8.662;2023-02-03T06:57:43;100933.81;;;8.03;100.00
11041;BME280;5573;49.592;8.662;2023-02-03T07:00:12;100945.06;;;7.89;100.00
11041;BME280;5573;49.592;8.662;2023-02-03T07:02:44;100966.69;;;8.03;100.00
11041;BME280;5573;49.592;8.662;2023-02-03T07:05:12;100958.88;;;7.92;100.00
11041;BME280;5573;49.592;8.662;2023-02-03T07:07:40;100952.88;;;7.99;100.00
11041;BME280;5573;49.592;8.662;2023-02-03T07:10:09;100961.34;;;8.06;100.00
11041;BME280;5573;49.592;8.662;2023-02-03T07:12:37;100964.69;;;8.12;100.00
11041;BME280;5573;49.592;8.662;2023-02-03T07:15:05;100970.09;;;8.21;100.00
11041;BME280;5573;49.592;8.662;2023-02-03T07:17:33;100973.56;;;8.09;100.00
11041;BME280;5573;49.592;8.662;2023-02-03T07:20:02;100978.03;;;8.13;100.00
11041;BME280;5573;49.592;8.662;2023-02-03T07:22:31;100980.78;;;8.13;100.00
11041;BME280;5573;49.592;8.662;2023-02-03T07:24:59;100978.03;;;8.13;100.00
11041;BME280;5573;49.592;8.662;2023-02-03T07:27:30;100982.47;;;8.06;100.00
11041;BME280;5573;49.592;8.662;2023-02-03T07:29:58;100978.47;;;8.03;100.00
11041;BME280;5573;49.592;8.662;2023-02-03T07:32:25;100992.09;;;8.12;100.00
11041;BME280;5573;49.592;8.662;2023-02-03T07:34:53;100975.75;;;8.15;100.00
11041;BME280;5573;49.592;8.662;2023-02-03T07:37:21;101001.66;;;8.06;100.00
11041;BME280;5573;49.592;8.662;2023-02-03T07:39:49;101012.06;;;8.12;100.00
11041;BME280;5573;49.592;8.662;2023-02-03T07:42:17;101005.66;;;8.08;100.00
11041;BME280;5573;49.592;8.662;2023-02-03T07:44:49;101002.31;;;8.03;100.00
11041;BME280;5573;49.592;8.662;2023-02-03T07:47:17;101004.88;;;8.08;100.00
11041;BME280;5573;49.592;8.662;2023-02-03T07:49:45;101003.47;;;8.02;100.00
11041;BME280;5573;49.592;8.662;2023-02-03T07:52:12;101004.81;;;7.96;100.00
11041;BME280;5573;49.592;8.662;2023-02-03T07:54:40;100988.03;;;7.97;100.00
11041;BME280;5573;49.592;8.662;2023-02-03T07:57:08;100995.72;;;7.83;100.00
11041;BME280;5573;49.592;8.662;2023-02-03T07:59:35;101000.41;;;7.82;100.00
11041;BME280;5573;49.592;8.662;2023-02-03T08:02:04;100995.78;;;7.74;100.00
11041;BME280;5573;49.592;8.662;2023-02-03T08:04:34;100998.16;;;7.76;100.00
11041;BME280;5573;49.592;8.662;2023-02-03T08:07:02;101000.66;;;7.68;100.00
11041;BME280;5573;49.592;8.662;2023-02-03T08:09:30;101003.19;;;7.73;100.00
11041;BME280;5573;49.592;8.662;2023-02-03T08:11:58;100969.75;;;7.38;100.00
11041;BME280;5573;49.592;8.662;2023-02-03T08:14:25;101002.38;;;7.73;100.00
11041;BME280;5573;49.592;8.662;2023-02-03T08:16:53;100997.50;;;7.58;100.00
11041;BME280;5573;49.592;8.662;2023-02-03T08:19:22;101015.03;;;7.57;100.00
11041;BME280;5573;49.592;8.662;2023-02-03T08:21:50;101025.69;;;7.58;100.00
11041;BME280;5573;49.592;8.662;2023-02-03T08:24:18;100966.00;;;7.22;100.00
11041;BME280;5573;49.592;8.662;2023-02-03T08:26:45;101024.94;;;7.49;100.00
11041;BME280;5573;49.592;8.662;2023-02-03T08:29:13;101006.50;;;7.58;100.00
11041;BME280;5573;49.592;8.662;2023-02-03T08:31:41;101003.56;;;7.42;100.00
11041;BME280;5573;49.592;8.662;2023-02-03T08:34:09;101014.94;;;7.53;100.00
11041;BME280;5573;49.592;8.662;2023-02-03T08:36:38;101010.09;;;7.50;100.00
11041;BME280;5573;49.592;8.662;2023-02-03T08:39:06;101011.44;;;7.65;100.00
11041;BME280;5573;49.592;8.662;2023-02-03T08:41:33;100992.56;;;7.72;100.00
11041;BME280;5573;49.592;8.662;2023-02-03T08:44:01;101008.63;;;8.03;100.00
11041;BME280;5573;49.592;8.662;2023-02-03T08:46:29;101018.34;;;8.13;100.00
11041;BME280;5573;49.592;8.662;2023-02-03T08:48:57;101013.19;;;8.11;100.00
11041;BME280;5573;49.592;8.662;2023-02-03T08:51:26;101013.94;;;8.21;100.00
11041;BME280;5573;49.592;8.662;2023-02-03T08:53:55;100990.31;;;8.28;100.00
11041;BME280;5573;49.592;8.662;2023-02-03T08:56:22;100994.25;;;8.40;100.00
11041;BME280;5573;49.592;8.662;2023-02-03T08:58:52;101004.94;;;8.41;100.00
11041;BME280;5573;49.592;8.662;2023-02-03T09:01:21;101004.38;;;8.48;100.00
11041;BME280;5573;49.592;8.662;2023-02-03T09:03:49;101006.75;;;8.49;100.00
11041;BME280;5573;49.592;8.662;2023-02-03T09:06:17;100996.69;;;8.41;100.00
11041;BME280;5573;49.592;8.662;2023-02-03T09:08:48;100994.78;;;8.54;100.00
11041;BME280;5573;49.592;8.662;2023-02-03T09:11:17;100991.91;;;8.50;100.00
11041;BME280;5573;49.592;8.662;2023-02-03T09:13:45;100997.56;;;8.33;100.00
11041;BME280;5573;49.592;8.662;2023-02-03T09:16:16;100993.78;;;8.38;100.00
11041;BME280;5573;49.592;8.662;2023-02-03T09:18:44;100998.47;;;8.58;100.00
11041;BME280;5573;49.592;8.662;2023-02-03T09:21:13;100953.00;;;8.36;100.00
11041;BME280;5573;49.592;8.662;2023-02-03T09:24:02;101006.59;;;8.67;100.00
11041;BME280;5573;49.592;8.662;2023-02-03T09:26:32;100999.34;;;8.50;100.00
11041;BME280;5573;49.592;8.662;2023-02-03T09:28:59;101000.28;;;8.66;100.00
11041;BME280;5573;49.592;8.662;2023-02-03T09:31:27;100998.53;;;8.49;100.00
11041;BME280;5573;49.592;8.662;2023-02-03T09:33:55;100986.63;;;8.45;100.00
11041;BME280;5573;49.592;8.662;2023-02-03T09:36:23;100995.91;;;8.53;100.00
11041;BME280;5573;49.592;8.662;2023-02-03T09:38:51;100987.34;;;8.54;100.00
11041;BME280;5573;49.592;8.662;2023-02-03T09:41:33;100992.16;;;8.58;100.00
11041;BME280;5573;49.592;8.662;2023-02-03T09:44:11;100994.38;;;8.77;100.00
11041;BME280;5573;49.592;8.662;2023-02-03T09:46:44;100980.41;;;8.69;100.00
11041;BME280;5573;49.592;8.662;2023-02-03T09:49:17;100987.50;;;8.83;100.00
11041;BME280;5573;49.592;8.662;2023-02-03T09:51:49;100996.31;;;8.76;100.00
11041;BME280;5573;49.592;8.662;2023-02-03T09:54:22;100977.69;;;8.82;100.00
11041;BME280;5573;49.592;8.662;2023-02-03T09:56:54;100997.09;;;8.77;100.00
11041;BME280;5573;49.592;8.662;2023-02-03T09:59:26;101000.09;;;8.84;100.00
11041;BME280;5573;49.592;8.662;2023-02-03T10:02:03;101006.63;;;9.04;100.00
11041;BME280;5573;49.592;8.662;2023-02-03T10:04:37;101015.66;;;8.80;100.00
11041;BME280;5573;49.592;8.662;2023-02-03T10:07:11;101003.75;;;9.00;100.00
11041;BME280;5573;49.592;8.662;2023-02-03T10:09:49;101013.84;;;8.96;100.00
11041;BME280;5573;49.592;8.662;2023-02-03T10:12:36;101008.00;;;8.98;100.00
11041;BME280;5573;49.592;8.662;2023-02-03T10:18:25;101002.63;;;9.01;100.00
11041;BME280;5573;49.592;8.662;2023-02-03T10:20:58;101010.19;;;9.04;100.00
11041;BME280;5573;49.592;8.662;2023-02-03T10:23:32;101002.41;;;9.06;100.00
11041;BME280;5573;49.592;8.662;2023-02-03T10:26:04;100990.75;;;8.97;100.00
11041;BME280;5573;49.592;8.662;2023-02-03T10:28:38;101000.59;;;8.98;100.00
11041;BME280;5573;49.592;8.662;2023-02-03T10:31:14;101014.31;;;9.10;100.00
11041;BME280;5573;49.592;8.662;2023-02-03T10:33:44;101007.22;;;8.97;100.00
11041;BME280;5573;49.592;8.662;2023-02-03T10:36:18;101000.94;;;8.97;100.00
11041;BME280;5573;49.592;8.662;2023-02-03T10:38:53;100996.22;;;8.97;100.00
11041;BME280;5573;49.592;8.662;2023-02-03T10:41:23;100980.53;;;8.85;100.00
11041;BME280;5573;49.592;8.662;2023-02-03T10:43:52;100983.66;;;8.84;100.00
11041;BME280;5573;49.592;8.662;2023-02-03T10:46:27;100979.09;;;8.88;100.00
11041;BME280;5573;49.592;8.662;2023-02-03T10:48:56;100963.75;;;8.87;100.00
11041;BME280;5573;49.592;8.662;2023-02-03T10:51:25;100971.78;;;8.92;100.00
11041;BME280;5573;49.592;8.662;2023-02-03T10:53:55;100956.44;;;8.91;100.00
11041;BME280;5573;49.592;8.662;2023-02-03T10:56:26;100959.06;;;9.00;100.00
11041;BME280;5573;49.592;8.662;2023-02-03T10:58:58;100959.53;;;9.02;100.00
11041;BME280;5573;49.592;8.662;2023-02-03T11:01:38;100962.97;;;8.99;100.00
11041;BME280;5573;49.592;8.662;2023-02-03T11:04:23;100950.94;;;8.91;100.00
11041;BME280;5573;49.592;8.662;2023-02-03T11:06:54;100946.38;;;9.07;100.00
11041;BME280;5573;49.592;8.662;2023-02-03T11:09:29;100958.84;;;8.92;100.00
11041;BME280;5573;49.592;8.662;2023-02-03T11:12:16;100951.19;;;8.98;100.00
11041;BME280;5573;49.592;8.662;2023-02-03T11:14:47;100946.59;;;9.02;100.00
11041;BME280;5573;49.592;8.662;2023-02-03T11:17:16;100951.53;;;8.97;100.00
11041;BME280;5573;49.592;8.662;2023-02-03T11:19:46;100948.41;;;9.10;100.00
11041;BME280;5573;49.592;8.662;2023-02-03T11:22:26;100952.31;;;9.09;100.00
11041;BME280;5573;49.592;8.662;2023-02-03T11:24:55;100948.22;;;9.03;100.00
11041;BME280;5573;49.592;8.662;2023-02-03T11:27:24;100944.22;;;9.01;100.00
11041;BME280;5573;49.592;8.662;2023-02-03T11:30:10;100957.34;;;8.95;100.00
11041;BME280;5573;49.592;8.662;2023-02-03T11:32:42;100969.13;;;8.95;100.00
11041;BME280;5573;49.592;8.662;2023-02-03T11:35:16;100970.72;;;8.84;100.00
11041;BME280;5573;49.592;8.662;2023-02-03T11:37:48;100965.91;;;8.93;100.00
11041;BME280;5573;49.592;8.662;2023-02-03T11:40:25;100966.25;;;8.80;100.00
11041;BME280;5573;49.592;8.662;2023-02-03T11:43:04;100969.34;;;8.90;100.00
11041;BME280;5573;49.592;8.662;2023-02-03T11:45:43;100959.53;;;8.77;100.00
11041;BME280;5573;49.592;8.662;2023-02-03T11:48:23;100964.09;;;8.73;100.00
11041;BME280;5573;49.592;8.662;2023-02-03T11:50:59;100971.63;;;8.76;100.00
11041;BME280;5573;49.592;8.662;2023-02-03T11:53:42;100958.81;;;8.80;100.00
11041;BME280;5573;49.592;8.662;2023-02-03T11:56:31;100952.41;;;8.76;100.00
11041;BME280;5573;49.592;8.662;2023-02-03T11:59:14;100955.50;;;8.74;100.00
11041;BME280;5573;49.592;8.662;2023-02-03T12:05:03;100938.13;;;8.70;100.00
11041;BME280;5573;49.592;8.662;2023-02-03T12:07:42;100936.84;;;8.68;100.00
11041;BME280;5573;49.592;8.662;2023-02-03T12:10:27;100930.34;;;8.85;100.00
11041;BME280;5573;49.592;8.662;2023-02-03T12:13:04;100930.34;;;8.85;100.00
11041;BME280;5573;49.592;8.662;2023-02-03T12:15:46;100916.44;;;8.90;100.00
11041;BME280;5573;49.592;8.662;2023-02-03T12:18:32;100915.84;;;8.84;100.00
11041;BME280;5573;49.592;8.662;2023-02-03T12:21:24;100901.31;;;8.71;100.00
11041;BME280;5573;49.592;8.662;2023-02-03T12:24:03;100896.63;;;8.84;100.00
11041;BME280;5573;49.592;8.662;2023-02-03T12:26:39;100914.13;;;8.67;100.00
11041;BME280;5573;49.592;8.662;2023-02-03T12:29:13;100910.69;;;8.70;100.00
11041;BME280;5573;49.592;8.662;2023-02-03T12:31:45;100917.78;;;8.84;100.00
11041;BME280;5573;49.592;8.662;2023-02-03T12:34:18;100908.97;;;8.78;100.00
11041;BME280;5573;49.592;8.662;2023-02-03T12:36:54;100917.56;;;8.89;100.00
11041;BME280;5573;49.592;8.662;2023-02-03T12:39:26;100876.50;;;8.68;100.00
11041;BME280;5573;49.592;8.662;2023-02-03T12:41:59;100896.72;;;9.00;100.00
11041;BME280;5573;49.592;8.662;2023-02-03T12:44:30;100891.16;;;9.09;100.00
11041;BME280;5573;49.592;8.662;2023-02-03T12:47:04;100890.56;;;9.15;100.00
11041;BME280;5573;49.592;8.662;2023-02-03T12:49:39;100893.78;;;9.05;100.00
11041;BME280;5573;49.592;8.662;2023-02-03T12:52:16;100891.34;;;9.16;100.00
11041;BME280;5573;49.592;8.662;2023-02-03T12:54:50;100887.56;;;9.21;100.00
11041;BME280;5573;49.592;8.662;2023-02-03T12:57:23;100867.56;;;9.08;100.00
11041;BME280;5573;49.592;8.662;2023-02-03T13:00:09;100867.69;;;9.11;100.00
11041;BME280;5573;49.592;8.662;2023-02-03T13:02:51;100861.41;;;8.99;100.00
11041;BME280;5573;49.592;8.662;2023-02-03T13:05:27;100863.69;;;9.09;100.00
11041;BME280;5573;49.592;8.662;2023-02-03T13:08:05;100867.44;;;9.04;100.00
11041;BME280;5573;49.592;8.662;2023-02-03T13:10:40;100867.69;;;8.99;100.00
11041;BME280;5573;49.592;8.662;2023-02-03T13:13:17;100859.94;;;8.89;100.00
11041;BME280;5573;49.592;8.662;2023-02-03T13:15:49;100814.78;;;8.62;100.00
11041;BME280;5573;49.592;8.662;2023-02-03T13:18:24;100859.91;;;9.13;100.00
11041;BME280;5573;49.592;8.662;2023-02-03T13:20:54;100865.97;;;9.07;100.00
11041;BME280;5573;49.592;8.662;2023-02-03T13:23:23;100865.41;;;9.01;100.00
11041;BME280;5573;49.592;8.662;2023-02-03T13:26:09;100865.16;;;9.19;100.00
11041;BME280;5573;49.592;8.662;2023-02-03T13:28:52;100879.59;;;9.15;100.00